Lovejoy, Georgia
Current Conditions -  °F | °C
As of 3:53 PM on Friday 19 Dec 2014 (Local Time) from KFFC Reporting Station
Clear Clear  
Wind Chill: 12°   Ceiling: Unl
Heat Index: 12°   Visibility: 10mi
Dew Point:   Wind: 0mph
Humidity: 51%   Direction: NA
Pressure: 30.1"   Gusts: NA
Location:  33.44°N, 84.31°W
Report Text: KFFC 192053Z AUTO 00000KT 10SM CLR 12/02 A3010 RMK AO2 SLP195 T01220022 56015
Loading
Personal Weather Stations






























Interactive Weather Map New forecast layout! Learn more

10-Day Weather Forecast

Advertisements
Track Severe Weather on mobile